sensor_id;sensor_type;location;lat;lon;timestamp;P1;durP1;ratioP1;P2;durP2;ratioP2
40629;SDS011;26329;40.388;-3.710;2022-11-06T00:07:57;9.95;;;5.57;;
40629;SDS011;26329;40.388;-3.710;2022-11-06T00:17:59;10.35;;;5.80;;
40629;SDS011;26329;40.388;-3.710;2022-11-06T00:28:01;3.78;;;2.88;;
40629;SDS011;26329;40.388;-3.710;2022-11-06T00:38:03;6.85;;;3.70;;
40629;SDS011;26329;40.388;-3.710;2022-11-06T00:48:04;8.25;;;4.63;;
40629;SDS011;26329;40.388;-3.710;2022-11-06T00:58:07;8.38;;;4.07;;
40629;SDS011;26329;40.388;-3.710;2022-11-06T01:08:09;6.90;;;3.85;;
40629;SDS011;26329;40.388;-3.710;2022-11-06T01:18:11;12.15;;;4.15;;
40629;SDS011;26329;40.388;-3.710;2022-11-06T01:28:12;8.05;;;3.45;;
40629;SDS011;26329;40.388;-3.710;2022-11-06T01:38:14;8.57;;;4.15;;
40629;SDS011;26329;40.388;-3.710;2022-11-06T01:48:17;5.10;;;3.28;;
40629;SDS011;26329;40.388;-3.710;2022-11-06T01:58:23;8.02;;;3.75;;
40629;SDS011;26329;40.388;-3.710;2022-11-06T02:08:27;8.10;;;3.45;;
40629;SDS011;26329;40.388;-3.710;2022-11-06T02:29:31;5.95;;;3.63;;
40629;SDS011;26329;40.388;-3.710;2022-11-06T02:39:41;4.85;;;3.38;;
40629;SDS011;26329;40.388;-3.710;2022-11-06T02:49:49;9.65;;;3.90;;
40629;SDS011;26329;40.388;-3.710;2022-11-06T03:00:09;6.80;;;3.80;;
40629;SDS011;26329;40.388;-3.710;2022-11-06T03:10:32;6.78;;;4.38;;
40629;SDS011;26329;40.388;-3.710;2022-11-06T03:20:55;5.00;;;3.90;;
40629;SDS011;26329;40.388;-3.710;2022-11-06T03:31:12;7.50;;;3.83;;
40629;SDS011;26329;40.388;-3.710;2022-11-06T03:51:41;7.45;;;3.90;;
40629;SDS011;26329;40.388;-3.710;2022-11-06T04:01:58;6.88;;;3.97;;
40629;SDS011;26329;40.388;-3.710;2022-11-06T04:12:04;3.55;;;2.78;;
40629;SDS011;26329;40.388;-3.710;2022-11-06T04:43:25;5.95;;;3.38;;
40629;SDS011;26329;40.388;-3.710;2022-11-06T04:53:51;7.40;;;3.63;;
40629;SDS011;26329;40.388;-3.710;2022-11-06T05:03:54;5.67;;;3.73;;
40629;SDS011;26329;40.388;-3.710;2022-11-06T05:13:56;6.95;;;3.97;;
40629;SDS011;26329;40.388;-3.710;2022-11-06T05:23:58;3.50;;;3.17;;
40629;SDS011;26329;40.388;-3.710;2022-11-06T05:33:59;6.20;;;3.35;;
40629;SDS011;26329;40.388;-3.710;2022-11-06T05:44:01;7.18;;;3.70;;
40629;SDS011;26329;40.388;-3.710;2022-11-06T05:54:02;6.20;;;3.33;;
40629;SDS011;26329;40.388;-3.710;2022-11-06T06:04:04;5.07;;;3.05;;
40629;SDS011;26329;40.388;-3.710;2022-11-06T06:14:06;7.45;;;3.00;;
40629;SDS011;26329;40.388;-3.710;2022-11-06T06:24:07;4.13;;;2.85;;
40629;SDS011;26329;40.388;-3.710;2022-11-06T06:34:09;4.03;;;2.80;;
40629;SDS011;26329;40.388;-3.710;2022-11-06T06:44:11;5.95;;;2.35;;
40629;SDS011;26329;40.388;-3.710;2022-11-06T06:54:13;6.10;;;3.15;;
40629;SDS011;26329;40.388;-3.710;2022-11-06T07:04:15;4.32;;;3.20;;
40629;SDS011;26329;40.388;-3.710;2022-11-06T07:14:17;46.28;;;5.00;;
40629;SDS011;26329;40.388;-3.710;2022-11-06T07:24:19;5.18;;;3.00;;
40629;SDS011;26329;40.388;-3.710;2022-11-06T07:34:20;3.30;;;2.92;;
40629;SDS011;26329;40.388;-3.710;2022-11-06T07:44:22;6.18;;;2.80;;
40629;SDS011;26329;40.388;-3.710;2022-11-06T07:54:24;9.15;;;3.47;;
40629;SDS011;26329;40.388;-3.710;2022-11-06T08:04:27;6.78;;;2.97;;
40629;SDS011;26329;40.388;-3.710;2022-11-06T08:14:30;4.82;;;3.22;;
40629;SDS011;26329;40.388;-3.710;2022-11-06T08:24:33;6.55;;;4.00;;
40629;SDS011;26329;40.388;-3.710;2022-11-06T08:34:35;11.80;;;4.00;;
40629;SDS011;26329;40.388;-3.710;2022-11-06T08:44:37;9.68;;;5.00;;
40629;SDS011;26329;40.388;-3.710;2022-11-06T08:54:38;8.45;;;4.45;;
40629;SDS011;26329;40.388;-3.710;2022-11-06T09:04:41;5.30;;;3.65;;
40629;SDS011;26329;40.388;-3.710;2022-11-06T09:14:43;8.52;;;4.80;;
40629;SDS011;26329;40.388;-3.710;2022-11-06T09:24:46;10.98;;;5.13;;
40629;SDS011;26329;40.388;-3.710;2022-11-06T09:34:49;7.80;;;4.70;;
40629;SDS011;26329;40.388;-3.710;2022-11-06T09:55:01;6.60;;;3.75;;
40629;SDS011;26329;40.388;-3.710;2022-11-06T10:05:26;8.57;;;3.88;;
40629;SDS011;26329;40.388;-3.710;2022-11-06T10:15:38;10.95;;;3.28;;
40629;SDS011;26329;40.388;-3.710;2022-11-06T10:26:17;7.90;;;3.90;;
40629;SDS011;26329;40.388;-3.710;2022-11-06T10:36:30;11.07;;;4.07;;
40629;SDS011;26329;40.388;-3.710;2022-11-06T10:46:54;10.10;;;4.95;;
40629;SDS011;26329;40.388;-3.710;2022-11-06T11:07:21;8.70;;;5.05;;
40629;SDS011;26329;40.388;-3.710;2022-11-06T11:17:23;9.13;;;4.82;;
40629;SDS011;26329;40.388;-3.710;2022-11-06T11:27:25;10.38;;;5.40;;
40629;SDS011;26329;40.388;-3.710;2022-11-06T11:47:34;15.73;;;8.73;;
40629;SDS011;26329;40.388;-3.710;2022-11-06T11:57:37;12.32;;;5.55;;
40629;SDS011;26329;40.388;-3.710;2022-11-06T12:07:49;8.80;;;5.88;;
40629;SDS011;26329;40.388;-3.710;2022-11-06T12:17:58;32.97;;;19.95;;
40629;SDS011;26329;40.388;-3.710;2022-11-06T12:28:03;14.85;;;7.45;;
40629;SDS011;26329;40.388;-3.710;2022-11-06T13:09:23;8.05;;;4.15;;
40629;SDS011;26329;40.388;-3.710;2022-11-06T13:19:45;5.70;;;3.42;;
40629;SDS011;26329;40.388;-3.710;2022-11-06T13:29:54;9.48;;;4.10;;
40629;SDS011;26329;40.388;-3.710;2022-11-06T13:40:14;5.78;;;2.85;;
40629;SDS011;26329;40.388;-3.710;2022-11-06T13:50:25;12.32;;;4.38;;
40629;SDS011;26329;40.388;-3.710;2022-11-06T14:10:59;6.35;;;3.28;;
40629;SDS011;26329;40.388;-3.710;2022-11-06T14:42:02;4.10;;;2.50;;
40629;SDS011;26329;40.388;-3.710;2022-11-06T14:52:05;7.90;;;3.03;;
40629;SDS011;26329;40.388;-3.710;2022-11-06T15:02:20;7.10;;;1.92;;
40629;SDS011;26329;40.388;-3.710;2022-11-06T15:13:02;4.85;;;2.25;;
40629;SDS011;26329;40.388;-3.710;2022-11-06T15:23:11;6.63;;;2.15;;
40629;SDS011;26329;40.388;-3.710;2022-11-06T15:33:18;2.08;;;0.90;;
40629;SDS011;26329;40.388;-3.710;2022-11-06T15:43:29;3.40;;;0.35;;
40629;SDS011;26329;40.388;-3.710;2022-11-06T15:53:32;2.75;;;0.52;;
40629;SDS011;26329;40.388;-3.710;2022-11-06T16:03:43;2.17;;;0.93;;
40629;SDS011;26329;40.388;-3.710;2022-11-06T16:13:49;5.65;;;1.33;;
40629;SDS011;26329;40.388;-3.710;2022-11-06T16:23:51;5.90;;;2.42;;
40629;SDS011;26329;40.388;-3.710;2022-11-06T16:33:59;4.85;;;1.13;;
40629;SDS011;26329;40.388;-3.710;2022-11-06T16:44:19;8.02;;;1.08;;
40629;SDS011;26329;40.388;-3.710;2022-11-06T16:54:22;3.72;;;1.30;;
40629;SDS011;26329;40.388;-3.710;2022-11-06T17:04:28;6.07;;;1.20;;
40629;SDS011;26329;40.388;-3.710;2022-11-06T17:14:30;7.00;;;1.52;;
40629;SDS011;26329;40.388;-3.710;2022-11-06T17:24:33;5.23;;;1.70;;
40629;SDS011;26329;40.388;-3.710;2022-11-06T17:34:35;7.25;;;2.40;;
40629;SDS011;26329;40.388;-3.710;2022-11-06T17:44:37;5.43;;;2.57;;
40629;SDS011;26329;40.388;-3.710;2022-11-06T17:54:40;4.90;;;2.20;;
40629;SDS011;26329;40.388;-3.710;2022-11-06T18:04:43;5.50;;;1.80;;
40629;SDS011;26329;40.388;-3.710;2022-11-06T18:14:46;5.93;;;2.67;;
40629;SDS011;26329;40.388;-3.710;2022-11-06T18:24:48;7.28;;;2.40;;
40629;SDS011;26329;40.388;-3.710;2022-11-06T18:34:49;8.65;;;3.45;;
40629;SDS011;26329;40.388;-3.710;2022-11-06T18:44:51;10.88;;;3.08;;
40629;SDS011;26329;40.388;-3.710;2022-11-06T18:54:52;11.10;;;2.35;;
40629;SDS011;26329;40.388;-3.710;2022-11-06T19:04:54;7.03;;;2.00;;
40629;SDS011;26329;40.388;-3.710;2022-11-06T19:14:56;4.72;;;2.00;;
40629;SDS011;26329;40.388;-3.710;2022-11-06T19:24:57;2.25;;;2.03;;
40629;SDS011;26329;40.388;-3.710;2022-11-06T19:34:59;4.93;;;2.22;;
40629;SDS011;26329;40.388;-3.710;2022-11-06T19:45:00;4.53;;;2.78;;
40629;SDS011;26329;40.388;-3.710;2022-11-06T19:55:03;6.07;;;1.73;;
40629;SDS011;26329;40.388;-3.710;2022-11-06T20:05:07;21.55;;;11.82;;
40629;SDS011;26329;40.388;-3.710;2022-11-06T20:15:08;24.60;;;11.02;;
40629;SDS011;26329;40.388;-3.710;2022-11-06T20:25:10;10.95;;;5.40;;
40629;SDS011;26329;40.388;-3.710;2022-11-06T20:35:12;9.15;;;4.57;;
40629;SDS011;26329;40.388;-3.710;2022-11-06T20:45:17;8.88;;;4.30;;
40629;SDS011;26329;40.388;-3.710;2022-11-06T20:55:18;10.65;;;4.93;;
40629;SDS011;26329;40.388;-3.710;2022-11-06T21:05:20;9.60;;;4.70;;
40629;SDS011;26329;40.388;-3.710;2022-11-06T21:15:22;10.20;;;5.80;;
40629;SDS011;26329;40.388;-3.710;2022-11-06T21:25:24;12.63;;;6.22;;
40629;SDS011;26329;40.388;-3.710;2022-11-06T21:35:25;19.45;;;9.27;;
40629;SDS011;26329;40.388;-3.710;2022-11-06T21:45:26;13.40;;;7.40;;
40629;SDS011;26329;40.388;-3.710;2022-11-06T21:55:28;17.58;;;9.43;;
40629;SDS011;26329;40.388;-3.710;2022-11-06T22:05:48;13.38;;;7.75;;
40629;SDS011;26329;40.388;-3.710;2022-11-06T22:15:50;81.40;;;32.50;;
40629;SDS011;26329;40.388;-3.710;2022-11-06T22:25:51;93.43;;;32.55;;
40629;SDS011;26329;40.388;-3.710;2022-11-06T22:35:59;18.45;;;7.93;;
40629;SDS011;26329;40.388;-3.710;2022-11-06T22:46:06;10.05;;;5.55;;
40629;SDS011;26329;40.388;-3.710;2022-11-06T22:56:19;10.80;;;5.43;;
40629;SDS011;26329;40.388;-3.710;2022-11-06T23:06:22;8.27;;;4.20;;
40629;SDS011;26329;40.388;-3.710;2022-11-06T23:16:25;10.37;;;4.37;;
40629;SDS011;26329;40.388;-3.710;2022-11-06T23:26:45;6.57;;;3.78;;
40629;SDS011;26329;40.388;-3.710;2022-11-06T23:36:47;4.95;;;3.20;;
40629;SDS011;26329;40.388;-3.710;2022-11-06T23:46:48;9.38;;;4.70;;
40629;SDS011;26329;40.388;-3.710;2022-11-06T23:56:51;6.45;;;3.30;;
